Time;durP1;ratioP1;P1;durP2;ratioP2;P2;SDS_P1;SDS_P2;PMS_P1;PMS_P2;Temp;Humidity;BMP_temperature;BMP_pressure;BME280_temperature;BME280_humidity;BME280_pressure;Samples;Min_cycle;Max_cycle;Signal;HPM_P1;HPM_P2
2023/01/11 00:00:24;;;;;;;;;;;;;;;-6.78;85.74;100639.11;109813;1282;22469;-60
2023/01/11 00:02:59;;;;;;;15.10;6.30;;;;;;;-6.79;85.88;100641.98;109756;1278;124979;-59
2023/01/11 00:05:25;;;;;;;19.50;6.10;;;;;;;-6.79;85.84;100637.23;109866;1278;22276;-59
2023/01/11 00:07:52;;;;;;;18.60;7.40;;;;;;;-6.79;85.91;100642.91;109796;1279;22886;-60
2023/01/11 00:10:19;;;;;;;;;;;;;;;-6.82;86.03;100640.51;109688;1283;138730;-59
2023/01/11 00:12:46;;;;;;;13.10;5.30;;;;;;;-6.79;85.78;100642.75;109790;1282;22776;-59
2023/01/11 00:15:13;;;;;;;15.50;6.90;;;;;;;-6.81;85.93;100644.34;109686;1283;139147;-60
2023/01/11 00:17:40;;;;;;;;;;;;;;;-6.83;86.02;100646.19;109904;1280;22461;-60
2023/01/11 00:20:08;;;;;;;11.60;5.30;;;;;;;-6.83;85.88;100642.86;109749;1277;125985;-60
2023/01/11 00:22:36;;;;;;;20.60;5.80;;;;;;;-6.85;85.87;100641.06;109814;1276;22343;-59
2023/01/11 00:25:03;;;;;;;20.40;6.30;;;;;;;-6.88;85.83;100639.36;109758;1277;22175;-60
2023/01/11 00:27:30;;;;;;;21.30;7.50;;;;;;;-6.91;85.71;100635.16;109686;1282;139394;-60
2023/01/11 00:29:56;;;;;;;;;;;;;;;-6.93;85.68;100635.84;109872;1282;22392;-60
2023/01/11 00:32:23;;;;;;;13.00;5.90;;;;;;;-6.94;85.45;100637.77;109695;1282;124877;-60
2023/01/11 00:34:50;;;;;;;;;;;;;;;-6.98;85.56;100635.60;109885;1275;22446;-60
2023/01/11 00:37:16;;;;;;;14.80;4.90;;;;;;;-7.00;85.40;100640.85;109815;1282;22496;-60
2023/01/11 00:39:43;;;;;;;14.50;5.30;;;;;;;-7.03;85.38;100645.84;109695;1282;138531;-60
2023/01/11 00:47:56;;;;;;;20.00;6.00;;;;;;;-7.09;85.68;100641.61;109827;1282;24063;-60
2023/01/11 00:50:24;;;;;;;20.00;5.40;;;;;;;-7.12;85.95;100647.27;109687;1283;145849;-60
2023/01/11 00:52:50;;;;;;;18.70;5.90;;;;;;;-7.12;85.68;100648.52;109837;1282;22469;-60
2023/01/11 00:55:17;;;;;;;18.30;7.10;;;;;;;-7.12;85.30;100658.08;109813;1276;22312;-59
2023/01/11 00:57:44;;;;;;;;;;;;;;;-7.15;84.89;100655.05;109709;1282;138745;-60
2023/01/11 01:00:11;;;;;;;10.60;5.10;;;;;;;-7.15;84.21;100659.98;109847;1279;23301;-60
2023/01/11 01:02:38;;;;;;;22.10;5.40;;;;;;;-7.14;83.86;100659.39;109660;1283;138060;-60
2023/01/11 01:05:05;;;;;;;16.50;5.30;;;;;;;-7.14;83.41;100660.08;109757;1281;22302;-60
2023/01/11 01:07:32;;;;;;;18.50;5.90;;;;;;;-7.15;83.28;100659.60;109777;1282;22498;-60
2023/01/11 01:09:59;;;;;;;18.10;6.10;;;;;;;-7.14;82.80;100660.95;109628;1276;139238;-60
2023/01/11 01:15:11;;;;;;;14.20;6.20;;;;;;;-7.16;82.05;100657.93;109714;1282;125107;-60
2023/01/11 01:17:38;;;;;;;19.80;6.20;;;;;;;-7.21;81.59;100652.85;109896;1282;22183;-60
2023/01/11 01:20:05;;;;;;;23.00;6.80;;;;;;;-7.18;81.77;100661.65;109802;1283;22358;-60
2023/01/11 01:22:32;;;;;;;10.40;4.20;;;;;;;-7.19;82.39;100665.79;109796;1281;22343;-60
2023/01/11 01:24:59;;;;;;;15.40;5.00;;;;;;;-7.19;82.66;100657.48;109801;1282;22394;-60
2023/01/11 01:27:26;;;;;;;;;;;;;;;-7.20;84.59;100666.20;109762;1281;138417;-60
2023/01/11 01:29:52;;;;;;;17.30;5.20;;;;;;;-7.20;85.14;100666.73;109675;1281;22682;-60
2023/01/11 01:32:19;;;;;;;;;;;;;;;-7.18;85.21;100662.70;105667;1281;138654;-59
2023/01/11 01:34:46;;;;;;;18.80;4.50;;;;;;;-7.17;85.02;100662.80;105690;1282;22558;-60
2023/01/11 01:37:14;;;;;;;12.50;5.10;;;;;;;-7.15;84.98;100665.49;105727;1281;24406;-59
2023/01/11 01:39:41;;;;;;;13.40;4.80;;;;;;;-7.18;84.55;100664.12;109637;1276;140081;-60
2023/01/11 01:42:14;;;;;;;;;;;;;;;-7.12;84.22;100671.09;109843;1281;22498;-60
2023/01/11 01:45:29;;;;;;;9.10;4.50;;;;;;;-7.12;83.37;100665.66;109711;1282;125632;-60
2023/01/11 01:47:59;;;;;;;15.60;5.30;;;;;;;-7.15;83.14;100659.45;109614;1283;23147;-60
2023/01/11 01:50:36;;;;;;;16.00;5.10;;;;;;;-7.15;82.94;100660.33;109519;1285;139579;-60
2023/01/11 01:53:06;;;;;;;15.80;4.60;;;;;;;-7.14;82.52;100663.44;109610;1285;22276;-60
2023/01/11 01:55:35;;;;;;;13.20;4.90;;;;;;;-7.12;82.40;100658.91;109677;1285;22352;-60
2023/01/11 01:58:04;;;;;;;14.90;5.20;;;;;;;-7.12;82.29;100664.91;109502;1282;139966;-59
2023/01/11 02:00:30;;;;;;;16.70;5.60;;;;;;;-7.12;81.92;100667.77;109555;1285;22363;-60
2023/01/11 02:02:57;;;;;;;;;;;;;;;-7.15;81.80;100666.16;109584;1285;138322;-59
2023/01/11 02:05:24;;;;;;;23.50;6.10;;;;;;;-7.17;82.02;100665.80;109629;1285;22333;-60
2023/01/11 02:07:53;;;;;;;;;;;;;;;-7.19;81.99;100662.40;109569;1280;22883;-60
2023/01/11 02:10:20;;;;;;;11.90;4.60;;;;;;;-7.20;81.87;100662.52;109559;1286;124021;-60
2023/01/11 02:13:07;;;;;;;11.90;4.80;;;;;;;-7.24;82.08;100663.54;109678;1283;22424;-60
2023/01/11 02:15:34;;;;;;;10.00;5.60;;;;;;;-7.28;82.01;100663.48;109455;1285;138652;-60
2023/01/11 02:18:01;;;;;;;23.70;5.50;;;;;;;-7.31;81.90;100666.00;109522;1279;22392;-60
2023/01/11 02:20:42;;;;;;;16.70;5.50;;;;;;;-7.33;81.51;100668.64;109565;1280;138735;-61
2023/01/11 02:23:43;;;;;;;9.50;4.50;;;;;;;-7.34;81.52;100671.50;109622;1279;22231;-60
2023/01/11 02:26:47;;;;;;;14.90;5.30;;;;;;;-7.34;81.14;100672.78;109698;1282;139259;-60
2023/01/11 02:29:27;;;;;;;21.90;7.10;;;;;;;-7.37;81.72;100677.41;109822;1282;22228;-60
2023/01/11 02:32:29;;;;;;;22.90;5.40;;;;;;;-7.37;81.74;100681.86;109771;1282;22216;-59
2023/01/11 02:35:30;;;;;;;14.30;4.70;;;;;;;-7.39;81.59;100674.56;109534;1286;23441;-60
2023/01/11 02:38:02;;;;;;;22.20;6.90;;;;;;;-7.39;81.42;100668.02;108852;1294;22339;-60
2023/01/11 02:40:29;;;;;;;16.40;5.20;;;;;;;-7.40;81.51;100667.77;108725;1294;138405;-60
2023/01/11 02:46:30;;;;;;;18.00;5.40;;;;;;;-7.46;81.69;100667.48;108872;1294;124678;-60
2023/01/11 02:49:09;;;;;;;15.30;5.10;;;;;;;-7.49;81.48;100670.17;108960;1289;22242;-60
2023/01/11 02:51:46;;;;;;;20.20;5.70;;;;;;;-7.52;81.33;100669.89;108834;1292;142040;-60
2023/01/11 02:54:13;;;;;;;10.50;4.30;;;;;;;-7.59;81.11;100659.44;108746;1293;24878;-60
2023/01/11 02:56:40;;;;;;;18.30;5.80;;;;;;;-7.56;80.88;100662.56;108811;1293;138063;-60
2023/01/11 02:59:12;;;;;;;7.50;4.50;;;;;;;-7.58;80.34;100661.54;108922;1294;22223;-60
2023/01/11 03:01:46;;;;;;;12.40;5.10;;;;;;;-7.62;80.34;100661.83;108670;1289;23477;-60
2023/01/11 03:04:48;;;;;;;10.50;4.50;;;;;;;-7.69;80.19;100659.36;108894;1293;138477;-60
2023/01/11 03:07:24;;;;;;;27.70;5.20;;;;;;;-7.65;80.13;100667.88;109006;1292;22301;-60
2023/01/11 03:09:55;;;;;;;8.30;3.90;;;;;;;-7.66;79.96;100669.36;108954;1287;139314;-60
2023/01/11 03:15:21;;;;;;;12.50;5.70;;;;;;;-7.67;80.09;100677.94;109738;1277;139236;-59
2023/01/11 03:17:48;;;;;;;;;;;;;;;-7.65;79.89;100688.67;109845;1281;22499;-60
2023/01/11 03:20:24;;;;;;;11.20;5.10;;;;;;;-7.63;79.60;100690.83;106038;1277;125726;-59
2023/01/11 03:23:08;;;;;;;15.70;5.90;;;;;;;-7.66;79.13;100698.95;109828;1281;22020;-59
2023/01/11 03:26:05;;;;;;;11.70;4.50;;;;;;;-7.69;79.36;100701.52;109801;1273;22428;-60
2023/01/11 03:29:09;;;;;;;14.90;5.40;;;;;;;-7.72;79.22;100701.21;109695;1276;139407;-59
2023/01/11 03:31:38;;;;;;;17.70;6.80;;;;;;;-7.72;78.62;100705.44;109745;1275;23425;-60
2023/01/11 03:34:09;;;;;;;12.30;4.40;;;;;;;-7.76;78.65;100705.53;109629;1277;139578;-60
2023/01/11 03:36:39;;;;;;;15.70;4.20;;;;;;;-7.77;78.97;100705.95;109785;1281;22176;-60
2023/01/11 03:39:21;;;;;;;11.60;5.50;;;;;;;-7.77;78.86;100720.60;109721;1281;139457;-60
2023/01/11 03:41:48;;;;;;;15.00;3.70;;;;;;;-7.79;78.36;100717.79;109812;1277;22176;-60
2023/01/11 03:44:15;;;;;;;16.50;5.10;;;;;;;-7.83;78.35;100722.44;109704;1276;139385;-60
2023/01/11 03:46:43;;;;;;;;;;;;;;;-7.86;78.59;100724.22;109864;1282;22404;-60
2023/01/11 03:49:12;;;;;;;11.10;4.80;;;;;;;-7.87;78.47;100720.44;109842;1276;22202;-60
2023/01/11 03:51:43;;;;;;;12.90;4.30;;;;;;;-7.87;78.46;100715.00;109734;1280;139224;-59
2023/01/11 03:54:12;;;;;;;9.70;4.50;;;;;;;-7.89;78.18;100713.50;109827;1277;22206;-60
2023/01/11 03:57:06;;;;;;;7.60;4.40;;;;;;;-7.91;78.83;100717.00;109691;1274;139624;-60
2023/01/11 03:59:33;;;;;;;9.70;4.50;;;;;;;-7.93;79.76;100717.89;109828;1277;22316;-60
2023/01/11 04:01:59;;;;;;;;;;;;;;;-7.94;79.51;100724.15;109870;1281;22515;-60
2023/01/11 04:04:26;;;;;;;12.90;5.00;;;;;;;-7.95;79.67;100717.17;109709;1281;124742;-60
2023/01/11 04:06:53;;;;;;;11.10;4.60;;;;;;;-7.95;79.11;100720.14;109916;1281;22258;-60
2023/01/11 04:09:20;;;;;;;;;;;;;;;-7.93;78.57;100719.30;109806;1275;139481;-60
2023/01/11 04:11:47;;;;;;;15.90;4.40;;;;;;;-7.93;77.89;100723.04;109886;1281;23300;-60
2023/01/11 04:14:13;;;;;;;11.90;5.20;;;;;;;-7.97;77.56;100723.10;109733;1277;138443;-60
2023/01/11 04:16:40;;;;;;;;;;;;;;;-7.98;77.66;100724.11;109952;1281;22426;-60
2023/01/11 04:19:07;;;;;;;11.70;5.40;;;;;;;-7.99;77.68;100723.95;109805;1280;23060;-60
2023/01/11 04:21:34;;;;;;;9.30;5.20;;;;;;;-8.01;77.16;100720.58;109789;1273;139525;-60
2023/01/11 04:24:00;;;;;;;12.90;4.20;;;;;;;-8.05;76.96;100721.23;109827;1277;22450;-59
2023/01/11 04:26:27;;;;;;;;;;;;;;;-8.09;77.02;100722.06;109744;1281;139292;-60
2023/01/11 04:28:54;;;;;;;10.20;4.80;;;;;;;-8.11;77.13;100727.70;109844;1276;22307;-59
2023/01/11 04:31:20;;;;;;;;;;;;;;;-8.11;77.19;100732.95;109820;1281;23269;-60
2023/01/11 04:33:47;;;;;;;9.10;4.30;;;;;;;-8.10;77.08;100742.08;109722;1276;125621;-60
2023/01/11 04:36:14;;;;;;;11.60;4.90;;;;;;;-8.12;77.08;100751.51;109877;1281;22493;-60
2023/01/11 04:38:41;;;;;;;;;;;;;;;-8.14;76.96;100756.63;109752;1275;139582;-60
2023/01/11 04:43:55;;;;;;;14.30;6.40;;;;;;;-8.19;76.92;100757.31;109863;1281;22343;-60
2023/01/11 04:46:22;;;;;;;15.30;6.50;;;;;;;-8.22;76.84;100753.45;109800;1281;138378;-60
2023/01/11 04:48:49;;;;;;;16.90;6.00;;;;;;;-8.21;77.07;100754.99;109822;1281;22211;-60
2023/01/11 04:51:16;;;;;;;;;;;;;;;-8.22;76.93;100753.84;109748;1275;138515;-60
2023/01/11 04:53:42;;;;;;;13.70;5.60;;;;;;;-8.24;76.93;100761.90;109827;1281;22299;-60
2023/01/11 04:56:10;;;;;;;;;;;;;;;-8.25;77.00;100764.41;109795;1276;22525;-59
2023/01/11 04:58:37;;;;;;;11.90;5.10;;;;;;;-8.23;77.17;100772.23;109834;1281;22797;-59
2023/01/11 05:01:08;;;;;;;;;;;;;;;-8.21;77.35;100773.30;109891;1274;23905;-59
2023/01/11 05:03:35;;;;;;;14.10;6.10;;;;;;;-8.22;77.17;100775.85;109753;1281;125746;-59
2023/01/11 05:06:02;;;;;;;17.00;5.90;;;;;;;-8.24;77.15;100773.33;109867;1277;22211;-59
2023/01/11 05:08:29;;;;;;;17.20;5.90;;;;;;;-8.27;77.08;100774.23;109756;1281;139553;-59
2023/01/11 05:10:56;;;;;;;;;;;;;;;-8.29;77.16;100762.44;109932;1281;23319;-59
2023/01/11 05:13:40;;;;;;;13.10;5.50;;;;;;;-8.37;77.30;100745.70;109842;1281;23058;-59
2023/01/11 05:16:18;;;;;;;10.90;5.70;;;;;;;-8.35;77.24;100758.50;109790;1274;139247;-59
2023/01/11 05:18:46;;;;;;;18.30;6.60;;;;;;;-8.39;77.44;100764.40;109894;1279;22347;-60
2023/01/11 05:21:15;;;;;;;14.20;5.90;;;;;;;-8.42;77.65;100768.64;109724;1274;138576;-59
2023/01/11 05:23:42;;;;;;;12.00;5.50;;;;;;;-8.42;77.56;100770.59;109653;1281;237313;-59
2023/01/11 05:26:49;;;;;;;11.00;5.00;;;;;;;-8.40;77.46;100771.86;102941;1312;545448;-59
2023/01/11 05:29:16;;;;;;;19.10;6.50;;;;;;;-8.42;77.71;100777.85;104999;1292;22612;-59
2023/01/11 05:31:42;;;;;;;;;;;;;;;-8.42;77.65;100775.89;104976;1288;23308;-60
2023/01/11 05:34:11;;;;;;;12.00;6.30;;;;;;;-8.42;77.58;100782.61;104911;1292;123849;-59
2023/01/11 05:36:38;;;;;;;14.10;5.80;;;;;;;-8.44;77.67;100786.27;105250;1292;22538;-60
2023/01/11 05:39:05;;;;;;;;;;;;;;;-8.45;77.62;100789.86;105137;1291;137708;-59
2023/01/11 05:41:32;;;;;;;10.60;5.00;;;;;;;-8.48;77.67;100791.94;105160;1289;200583;-60
2023/01/11 05:46:44;;;;;;;20.60;6.20;;;;;;;-8.50;77.73;100790.40;105260;1285;24229;-60
2023/01/11 05:49:11;;;;;;;;;;;;;;;-8.51;77.77;100792.19;105207;1290;22536;-59
2023/01/11 05:51:39;;;;;;;14.00;7.40;;;;;;;-8.55;77.68;100783.83;109253;1284;124523;-61
2023/01/11 05:54:08;;;;;;;16.30;5.90;;;;;;;-8.50;77.88;100792.10;109399;1285;22244;-60
2023/01/11 05:56:34;;;;;;;13.80;5.00;;;;;;;-8.48;77.70;100796.23;109568;1279;140159;-63
2023/01/11 05:59:02;;;;;;;;;;;;;;;-8.46;77.84;100798.02;109562;1282;22622;-60
2023/01/11 06:01:30;;;;;;;8.20;4.10;;;;;;;-8.45;77.51;100799.03;109651;1286;23093;-61
2023/01/11 06:03:56;;;;;;;7.50;4.30;;;;;;;-8.45;77.20;100788.08;109497;1281;139383;-60
2023/01/11 06:06:23;;;;;;;;;;;;;;;-8.47;77.11;100795.77;109596;1286;22550;-60
2023/01/11 06:08:50;;;;;;;17.80;7.80;;;;;;;-8.47;77.02;100801.42;109565;1285;124933;-60
2023/01/11 06:11:16;;;;;;;;;;;;;;;-8.48;76.77;100807.14;109641;1286;22542;-60
2023/01/11 06:13:43;;;;;;;12.20;5.60;;;;;;;-8.53;76.82;100805.03;109545;1282;22306;-60
2023/01/11 06:16:17;;;;;;;;;;;;;;;-8.49;76.58;100810.92;109468;1279;138195;-61
2023/01/11 06:18:45;;;;;;;12.50;5.30;;;;;;;-8.52;76.48;100806.75;109523;1286;22426;-60
2023/01/11 06:21:12;;;;;;;12.00;5.20;;;;;;;-8.57;76.47;100800.19;109382;1286;138298;-60
2023/01/11 06:23:41;;;;;;;12.50;5.60;;;;;;;-8.60;76.25;100797.39;109647;1280;23139;-60
2023/01/11 06:26:13;;;;;;;12.90;5.50;;;;;;;-8.64;76.29;100804.34;109493;1279;22385;-60
2023/01/11 06:28:40;;;;;;;12.20;5.10;;;;;;;-8.71;76.41;100791.80;109414;1286;138061;-61
2023/01/11 06:31:07;;;;;;;;;;;;;;;-8.66;76.52;100795.02;109566;1286;22622;-61
2023/01/11 06:33:34;;;;;;;7.30;5.10;;;;;;;-8.67;76.54;100792.08;109476;1285;125265;-60
2023/01/11 06:36:06;;;;;;;11.10;4.90;;;;;;;-8.66;76.57;100795.14;109481;1281;22342;-60
2023/01/11 06:38:33;;;;;;;11.30;4.80;;;;;;;-8.68;76.76;100789.44;109477;1282;138331;-61
2023/01/11 06:41:00;;;;;;;11.30;4.40;;;;;;;-8.61;76.72;100796.57;109548;1286;22957;-60
2023/01/11 06:43:27;;;;;;;9.80;6.00;;;;;;;-8.60;76.90;100806.67;109535;1286;22180;-60
2023/01/11 06:45:54;;;;;;;22.80;6.50;;;;;;;-8.59;76.61;100799.02;109502;1285;137911;-61
2023/01/11 06:48:22;;;;;;;11.20;5.50;;;;;;;-8.60;76.62;100803.88;109575;1282;23025;-60
2023/01/11 06:50:49;;;;;;;9.30;5.20;;;;;;;-8.61;76.65;100811.34;109438;1279;138239;-60
2023/01/11 06:53:16;;;;;;;24.50;8.20;;;;;;;-8.60;76.83;100812.50;109527;1281;22278;-61
2023/01/11 06:55:42;;;;;;;;;;;;;;;-8.58;76.76;100814.12;109545;1280;22492;-60
2023/01/11 06:58:09;;;;;;;10.70;4.90;;;;;;;-8.55;76.56;100825.24;109427;1285;125018;-61
2023/01/11 07:00:37;;;;;;;14.00;5.90;;;;;;;-8.58;76.40;100815.17;109518;1281;22197;-60
2023/01/11 07:03:04;;;;;;;10.20;5.60;;;;;;;-8.61;76.44;100815.21;109400;1282;138129;-60
2023/01/11 07:05:31;;;;;;;13.90;6.80;;;;;;;-8.62;76.59;100813.68;109520;1282;22172;-60
2023/01/11 07:07:58;;;;;;;14.50;5.80;;;;;;;-8.60;76.72;100809.86;109483;1288;22228;-60
2023/01/11 07:10:25;;;;;;;;;;;;;;;-8.58;76.75;100799.16;109429;1287;139045;-60
2023/01/11 07:12:52;;;;;;;18.30;7.10;;;;;;;-8.56;76.49;100797.66;109556;1280;22432;-60
2023/01/11 07:15:19;;;;;;;15.60;5.50;;;;;;;-8.55;76.60;100793.18;109488;1282;139344;-61
2023/01/11 07:17:47;;;;;;;15.10;5.60;;;;;;;-8.59;76.31;100780.54;109599;1287;22863;-60
2023/01/11 07:20:14;;;;;;;12.50;6.40;;;;;;;-8.60;76.48;100776.79;109564;1282;22227;-61
2023/01/11 07:22:41;;;;;;;15.20;7.00;;;;;;;-8.63;76.44;100776.45;109404;1279;137821;-61
2023/01/11 07:25:08;;;;;;;;;;;;;;;-8.67;76.41;100795.05;109565;1288;22418;-61
2023/01/11 07:27:34;;;;;;;14.50;6.10;;;;;;;-8.70;76.64;100801.20;109434;1281;126014;-60
2023/01/11 07:30:01;;;;;;;15.60;6.40;;;;;;;-8.72;76.52;100800.83;109516;1273;22802;-60
2023/01/11 07:32:28;;;;;;;15.10;6.40;;;;;;;-8.70;76.77;100799.16;109419;1281;138359;-60
2023/01/11 07:34:55;;;;;;;;;;;;;;;-8.68;76.62;100805.70;109490;1287;23646;-61
2023/01/11 07:37:24;;;;;;;18.20;7.40;;;;;;;-8.66;76.47;100819.46;109479;1287;22838;-60
2023/01/11 07:39:55;;;;;;;8.60;4.90;;;;;;;-8.66;76.30;100820.21;109372;1279;139305;-60
2023/01/11 07:45:07;;;;;;;11.40;6.20;;;;;;;-8.68;76.26;100822.25;109431;1282;124722;-61
2023/01/11 07:47:34;;;;;;;19.00;5.70;;;;;;;-8.66;76.31;100826.48;109546;1282;22204;-60
2023/01/11 07:50:00;;;;;;;;;;;;;;;-8.63;76.28;100826.09;109546;1285;22426;-60
2023/01/11 07:52:27;;;;;;;20.00;6.20;;;;;;;-8.59;76.17;100833.56;109423;1279;125669;-60
2023/01/11 07:54:54;;;;;;;;;;;;;;;-8.55;76.32;100844.75;109559;1287;23319;-60
2023/01/11 07:57:36;;;;;;;12.20;6.10;;;;;;;-8.51;76.24;100855.40;109407;1281;124528;-59
2023/01/11 08:00:03;;;;;;;11.90;5.20;;;;;;;-8.47;76.04;100854.48;109490;1287;22255;-60
2023/01/11 08:02:37;;;;;;;22.80;8.50;;;;;;;-8.45;75.93;100843.61;109424;1282;138903;-60
2023/01/11 08:05:04;;;;;;;16.70;6.90;;;;;;;-8.44;75.60;100838.73;109545;1287;22206;-60
2023/01/11 08:07:31;;;;;;;20.50;8.70;;;;;;;-8.44;75.33;100836.27;109546;1287;22215;-60
2023/01/11 08:09:57;;;;;;;;;;;;;;;-8.44;75.11;100827.98;109503;1279;138492;-60
2023/01/11 08:15:12;;;;;;;15.50;7.40;;;;;;;-8.41;75.49;100840.43;109462;1286;140194;-60
2023/01/11 08:17:39;;;;;;;12.30;6.80;;;;;;;-8.36;75.28;100836.79;109544;1287;22832;-60
2023/01/11 08:20:06;;;;;;;;;;;;;;;-8.32;75.28;100838.80;109411;1279;23367;-60
2023/01/11 08:22:33;;;;;;;16.20;7.00;;;;;;;-8.28;75.06;100848.34;109457;1282;126395;-60
2023/01/11 08:24:59;;;;;;;;;;;;;;;-8.26;74.94;100848.02;109477;1285;23275;-61
2023/01/11 08:27:26;;;;;;;16.10;8.10;;;;;;;-8.25;74.69;100841.64;109447;1288;124385;-60
2023/01/11 08:29:53;;;;;;;;;;;;;;;-8.25;74.54;100833.49;109531;1279;22532;-60
2023/01/11 08:32:19;;;;;;;20.50;7.60;;;;;;;-8.24;74.33;100845.57;109454;1281;125440;-59
2023/01/11 08:34:46;;;;;;;;;;;;;;;-8.24;74.28;100842.42;109900;1278;22504;-59
2023/01/11 08:37:13;;;;;;;15.90;7.40;;;;;;;-8.24;74.34;100826.75;109884;1281;22950;-59
2023/01/11 08:39:40;;;;;;;16.90;6.60;;;;;;;-8.25;74.09;100822.20;109715;1276;138555;-59
2023/01/11 08:42:07;;;;;;;;;;;;;;;-8.26;74.13;100815.10;109876;1276;22421;-60
2023/01/11 08:44:33;;;;;;;13.20;6.80;;;;;;;-8.27;74.55;100809.67;109754;1278;124645;-60
2023/01/11 08:47:01;;;;;;;11.80;6.70;;;;;;;-8.26;74.63;100815.62;109892;1276;22327;-60
2023/01/11 08:49:29;;;;;;;12.00;5.90;;;;;;;-8.27;74.35;100810.56;109889;1281;23172;-59
2023/01/11 08:51:56;;;;;;;16.50;7.50;;;;;;;-8.31;74.35;100810.66;109742;1276;138512;-59
2023/01/11 08:54:23;;;;;;;;;;;;;;;-8.34;74.22;100810.01;109848;1278;22503;-60
2023/01/11 08:56:50;;;;;;;12.90;7.10;;;;;;;-8.36;74.50;100810.84;109780;1276;124835;-60
2023/01/11 08:59:18;;;;;;;;;;;;;;;-8.34;74.83;100808.27;109636;1276;22559;-60
2023/01/11 09:01:46;;;;;;;16.80;7.80;;;;;;;-8.33;74.89;100790.91;109878;1279;23472;-59
2023/01/11 09:04:13;;;;;;;13.40;7.20;;;;;;;-8.27;74.67;100800.51;109721;1276;139734;-60
2023/01/11 09:06:51;;;;;;;13.30;7.30;;;;;;;-8.26;74.47;100814.20;109870;1280;23046;-60
2023/01/11 09:09:18;;;;;;;20.10;7.50;;;;;;;-8.27;74.17;100809.14;109785;1278;138240;-60
2023/01/11 09:11:53;;;;;;;;;;;;;;;-8.30;74.20;100814.98;109865;1276;23629;-60
2023/01/11 09:14:21;;;;;;;17.60;7.90;;;;;;;-8.32;74.05;100814.95;109829;1281;124448;-60
2023/01/11 09:16:48;;;;;;;13.40;7.50;;;;;;;-8.34;74.03;100820.40;109845;1282;22211;-60
2023/01/11 09:19:15;;;;;;;28.70;9.10;;;;;;;-8.34;74.16;100824.48;109885;1281;22199;-60
2023/01/11 09:21:42;;;;;;;;;;;;;;;-8.37;73.94;100818.84;109795;1276;138431;-60
2023/01/11 09:24:09;;;;;;;25.90;8.30;;;;;;;-8.40;73.82;100806.80;109908;1278;22174;-60
2023/01/11 09:26:37;;;;;;;;;;;;;;;-8.43;73.82;100805.55;109714;1281;138986;-60
2023/01/11 09:29:04;;;;;;;15.80;7.00;;;;;;;-8.45;74.04;100815.88;109862;1273;22335;-60
2023/01/11 09:31:31;;;;;;;20.10;6.90;;;;;;;-8.44;74.36;100819.39;109824;1279;22380;-61
2023/01/11 09:33:57;;;;;;;;;;;;;;;-8.42;74.50;100819.54;109717;1281;138783;-60
2023/01/11 09:36:26;;;;;;;12.00;6.30;;;;;;;-8.40;74.27;100818.01;109858;1276;22359;-60
2023/01/11 09:38:56;;;;;;;20.10;6.40;;;;;;;-8.40;74.33;100822.27;109731;1276;138568;-61
2023/01/11 09:41:45;;;;;;;22.50;7.10;;;;;;;-8.41;74.23;100821.09;109883;1279;22374;-59
2023/01/11 09:44:15;;;;;;;13.30;6.40;;;;;;;-8.46;74.38;100802.73;109838;1281;22194;-60
2023/01/11 09:46:45;;;;;;;18.00;6.30;;;;;;;-8.47;74.38;100801.25;109866;1281;22783;-61
2023/01/11 09:49:15;;;;;;;11.60;6.20;;;;;;;-8.48;74.36;100789.55;109787;1281;22604;-60
2023/01/11 09:51:42;;;;;;;16.60;7.20;;;;;;;-8.50;74.26;100788.80;109729;1281;139340;-60
2023/01/11 09:54:10;;;;;;;;;;;;;;;-8.53;74.30;100786.38;109812;1273;23464;-60
2023/01/11 09:56:45;;;;;;;24.80;9.20;;;;;;;-8.52;74.57;100786.63;109689;1267;126801;-61
2023/01/11 09:59:23;;;;;;;13.50;8.20;;;;;;;-8.47;74.94;100779.74;109757;1277;22342;-60
2023/01/11 10:02:29;;;;;;;21.40;8.30;;;;;;;-8.42;74.78;100777.84;109769;1282;22216;-60
2023/01/11 10:05:22;;;;;;;29.40;9.30;;;;;;;-8.38;74.60;100778.63;109392;1288;22880;-60
2023/01/11 10:07:53;;;;;;;15.90;8.80;;;;;;;-8.36;74.18;100773.36;109434;1287;22943;-60
2023/01/11 10:10:50;;;;;;;17.60;9.40;;;;;;;-8.36;74.20;100767.17;109329;1282;139376;-60
2023/01/11 10:14:13;;;;;;;21.50;10.30;;;;;;;-8.35;73.98;100754.96;109379;1287;22206;-61
2023/01/11 10:17:15;;;;;;;17.90;8.00;;;;;;;-8.33;73.75;100753.76;108914;1292;22257;-60
2023/01/11 10:20:10;;;;;;;18.60;8.60;;;;;;;-8.34;73.57;100746.23;108904;1293;22281;-61
2023/01/11 10:22:41;;;;;;;24.90;10.20;;;;;;;-8.34;73.69;100741.83;108816;1293;140394;-60
2023/01/11 10:25:17;;;;;;;16.60;8.40;;;;;;;-8.30;73.85;100735.91;108836;1293;22392;-59
2023/01/11 10:27:52;;;;;;;16.50;7.50;;;;;;;-8.26;73.93;100732.44;108817;1293;139682;-60
2023/01/11 10:30:34;;;;;;;17.90;9.00;;;;;;;-8.22;73.87;100727.73;108883;1292;22270;-61
2023/01/11 10:36:54;;;;;;;20.50;8.40;;;;;;;-8.11;73.92;100728.73;108990;1288;22375;-60
2023/01/11 10:42:23;;;;;;;16.40;8.30;;;;;;;-8.05;74.09;100730.05;108927;1282;22457;-60
2023/01/11 10:44:59;;;;;;;26.50;9.80;;;;;;;-8.02;74.05;100724.91;108997;1287;140691;-60
2023/01/11 10:48:01;;;;;;;15.80;6.90;;;;;;;-8.01;74.02;100717.42;109331;1288;22232;-61
2023/01/11 10:50:53;;;;;;;18.30;7.00;;;;;;;-7.99;73.88;100710.93;109261;1288;138983;-60
2023/01/11 10:53:39;;;;;;;15.80;7.60;;;;;;;-7.96;73.73;100712.13;109684;1276;22274;-60
2023/01/11 10:56:38;;;;;;;13.30;6.30;;;;;;;-7.97;73.50;100708.34;109837;1281;22182;-60
2023/01/11 10:59:41;;;;;;;22.60;8.70;;;;;;;-7.99;73.75;100713.20;109859;1281;22844;-60
2023/01/11 11:02:27;;;;;;;13.10;7.20;;;;;;;-7.97;74.00;100718.00;109862;1276;22849;-60
2023/01/11 11:05:34;;;;;;;19.70;8.20;;;;;;;-7.91;74.33;100704.67;109765;1276;140038;-60
2023/01/11 11:08:10;;;;;;;15.20;7.70;;;;;;;-7.81;74.53;100705.95;109797;1281;22205;-60
2023/01/11 11:11:02;;;;;;;18.20;7.10;;;;;;;-7.74;74.48;100713.67;109715;1274;140087;-60
2023/01/11 11:13:47;;;;;;;18.50;6.90;;;;;;;-7.72;74.14;100712.33;109905;1282;22215;-60
2023/01/11 11:16:20;;;;;;;19.60;7.90;;;;;;;-7.63;74.12;100714.65;109743;1276;138888;-61
2023/01/11 11:18:48;;;;;;;14.60;7.20;;;;;;;-7.59;73.79;100720.85;109857;1281;22219;-60
2023/01/11 11:21:27;;;;;;;12.10;6.40;;;;;;;-7.57;73.64;100715.60;109752;1281;138896;-60
2023/01/11 11:24:26;;;;;;;16.60;7.60;;;;;;;-7.52;73.61;100713.10;109794;1282;22336;-60
2023/01/11 11:27:01;;;;;;;15.50;7.80;;;;;;;-7.44;73.60;100711.99;109799;1281;138514;-60
2023/01/11 11:29:29;;;;;;;16.40;8.30;;;;;;;-7.41;73.23;100714.42;109758;1282;23348;-60
2023/01/11 11:31:57;;;;;;;24.60;8.00;;;;;;;-7.38;73.44;100717.56;109793;1282;22351;-60
2023/01/11 11:34:26;;;;;;;21.60;9.20;;;;;;;-7.36;72.99;100714.73;109787;1281;138717;-60
2023/01/11 11:36:53;;;;;;;16.20;8.60;;;;;;;-7.36;72.92;100703.10;109863;1279;22351;-60
2023/01/11 11:39:21;;;;;;;;;;;;;;;-7.39;72.50;100689.60;109730;1281;138778;-60
2023/01/11 11:41:48;;;;;;;;;;;;;;;-7.42;72.69;100694.02;109835;1276;22522;-60
2023/01/11 11:44:25;;;;;;;10.00;5.90;;;;;;;-7.42;72.73;100700.36;109828;1280;22792;-60
2023/01/11 11:47:00;;;;;;;18.10;7.00;;;;;;;-7.39;72.85;100708.96;109678;1278;139923;-60
2023/01/11 11:49:28;;;;;;;18.90;10.90;;;;;;;-7.36;72.85;100707.00;109856;1274;22446;-60
2023/01/11 11:51:55;;;;;;;33.50;20.90;;;;;;;-7.36;72.69;100699.37;109679;1276;139129;-60
2023/01/11 11:54:34;;;;;;;;;;;;;;;-7.28;72.78;100710.98;109816;1281;22943;-60
2023/01/11 11:57:12;;;;;;;19.70;9.20;;;;;;;-7.22;72.93;100719.33;109777;1274;125203;-60
2023/01/11 11:59:42;;;;;;;23.00;11.40;;;;;;;-7.21;72.61;100714.29;109752;1281;22361;-61
2023/01/11 12:02:20;;;;;;;15.60;8.20;;;;;;;-7.17;72.26;100717.52;109756;1280;22216;-61
2023/01/11 12:04:47;;;;;;;19.20;9.50;;;;;;;-7.17;71.96;100719.12;109687;1282;138977;-61
2023/01/11 12:07:21;;;;;;;15.40;8.60;;;;;;;-7.16;72.10;100714.11;109852;1281;22203;-60
2023/01/11 12:10:14;;;;;;;14.90;8.80;;;;;;;-7.13;72.18;100712.81;109722;1281;138782;-61
2023/01/11 12:12:58;;;;;;;19.50;8.30;;;;;;;-7.11;71.91;100710.02;109905;1275;22434;-61